createdAt,value
2023-05-02T00:01:24.425Z,22.50
2023-05-02T00:04:13.119Z,22.50
2023-05-02T00:07:01.756Z,22.50
2023-05-02T00:09:51.595Z,22.50
2023-05-02T00:12:40.084Z,22.50
2023-05-02T00:15:28.695Z,22.50
2023-05-02T00:18:17.346Z,22.50
2023-05-02T00:21:06.481Z,22.40
2023-05-02T00:23:56.982Z,22.50
2023-05-02T00:26:46.932Z,22.40
2023-05-02T00:29:35.607Z,22.40
2023-05-02T00:32:24.018Z,22.40
2023-05-02T00:35:12.683Z,22.30
2023-05-02T00:38:01.402Z,22.30
2023-05-02T00:40:51.332Z,22.40
2023-05-02T00:43:41.222Z,22.40
2023-05-02T00:46:29.923Z,22.30
2023-05-02T00:49:18.356Z,22.30
2023-05-02T00:52:07.821Z,22.30
2023-05-02T00:54:56.638Z,22.30
2023-05-02T00:57:45.054Z,22.30
2023-05-02T01:00:51.520Z,22.30
2023-05-02T01:03:47.486Z,22.30
2023-05-02T01:06:48.403Z,22.30
2023-05-02T01:09:45.958Z,22.30
2023-05-02T01:12:41.125Z,22.20
2023-05-02T01:15:30.092Z,22.20
2023-05-02T01:18:25.027Z,22.20
2023-05-02T01:21:14.188Z,22.20
2023-05-02T01:24:09.358Z,22.20
2023-05-02T01:27:17.371Z,22.10
2023-05-02T01:30:09.337Z,22.10
2023-05-02T01:33:00.441Z,22.10
2023-05-02T01:35:52.773Z,22.10
2023-05-02T01:38:43.788Z,22.10
2023-05-02T01:41:33.696Z,22.10
2023-05-02T01:44:24.648Z,22.10
2023-05-02T01:47:16.368Z,22.10
2023-05-02T01:50:07.160Z,22.00
2023-05-02T01:52:56.864Z,22.10
2023-05-02T01:55:47.093Z,22.10
2023-05-02T01:58:38.029Z,22.10
2023-05-02T02:01:29.092Z,22.00
2023-05-02T02:04:21.278Z,22.00
2023-05-02T02:07:14.291Z,22.00
2023-05-02T02:10:03.159Z,22.00
2023-05-02T02:12:59.049Z,22.00
2023-05-02T02:15:50.511Z,22.00
2023-05-02T02:18:40.425Z,22.00
2023-05-02T02:21:32.257Z,22.00
2023-05-02T02:24:23.122Z,22.00
2023-05-02T02:27:11.512Z,22.00
2023-05-02T02:30:00.420Z,22.00
2023-05-02T02:32:49.142Z,22.00
2023-05-02T02:35:41.715Z,21.90
2023-05-02T02:38:37.010Z,22.00
2023-05-02T02:41:33.183Z,21.90
2023-05-02T02:44:36.219Z,21.90
2023-05-02T02:47:30.662Z,21.90
2023-05-02T02:50:26.138Z,21.90
2023-05-02T02:53:19.886Z,21.80
2023-05-02T02:56:18.108Z,21.80
2023-05-02T02:59:11.936Z,21.80
2023-05-02T03:02:05.373Z,21.80
2023-05-02T03:04:55.088Z,21.80
2023-05-02T03:07:43.609Z,21.80
2023-05-02T03:10:33.913Z,21.80
2023-05-02T03:13:23.815Z,21.80
2023-05-02T03:16:35.144Z,21.80
2023-05-02T03:19:23.656Z,21.80
2023-05-02T03:22:12.582Z,21.80
2023-05-02T03:25:00.972Z,21.80
2023-05-02T03:27:49.557Z,21.80
2023-05-02T03:30:40.922Z,21.70
2023-05-02T03:33:29.342Z,21.70
2023-05-02T03:36:18.325Z,21.70
2023-05-02T03:39:06.834Z,21.70
2023-05-02T03:41:55.320Z,21.70
2023-05-02T03:44:43.901Z,21.70
2023-05-02T03:47:33.714Z,21.70
2023-05-02T03:50:22.530Z,21.60
2023-05-02T03:53:11.255Z,21.60
2023-05-02T03:55:59.880Z,21.60
2023-05-02T03:58:49.173Z,21.60
2023-05-02T04:01:37.611Z,21.60
2023-05-02T04:04:27.580Z,21.60
2023-05-02T04:07:19.459Z,21.40
2023-05-02T04:10:16.389Z,21.40
2023-05-02T04:13:05.350Z,21.30
2023-05-02T04:15:53.870Z,21.30
2023-05-02T04:18:42.314Z,21.20
2023-05-02T04:21:33.124Z,21.10
2023-05-02T04:24:22.107Z,21.10
2023-05-02T04:27:12.510Z,21.00
2023-05-02T04:30:03.808Z,21.00
2023-05-02T04:32:53.150Z,21.00
2023-05-02T04:35:44.219Z,21.00
2023-05-02T04:38:34.365Z,21.00
2023-05-02T04:41:23.326Z,21.00
2023-05-02T04:44:11.773Z,21.00
2023-05-02T04:47:00.211Z,21.00
2023-05-02T04:49:48.592Z,21.00
2023-05-02T04:52:37.274Z,21.00
2023-05-02T04:55:27.093Z,21.00
2023-05-02T04:58:15.671Z,21.00
2023-05-02T05:01:04.107Z,21.10
2023-05-02T05:03:52.723Z,21.10
2023-05-02T05:06:41.301Z,21.10
2023-05-02T05:09:29.882Z,21.20
2023-05-02T05:12:20.142Z,21.10
2023-05-02T05:15:09.499Z,21.20
2023-05-02T05:17:57.974Z,21.20
2023-05-02T05:20:46.530Z,21.20
2023-05-02T05:23:35.305Z,21.20
2023-05-02T05:26:23.940Z,21.20
2023-05-02T05:29:13.820Z,21.20
2023-05-02T05:32:02.952Z,21.30
2023-05-02T05:34:53.900Z,21.30
2023-05-02T05:37:42.460Z,21.30
2023-05-02T05:40:30.806Z,21.30
2023-05-02T05:43:19.365Z,21.30
2023-05-02T05:46:09.183Z,21.40
2023-05-02T05:48:57.611Z,21.50
2023-05-02T05:51:47.731Z,21.50
2023-05-02T05:54:36.201Z,21.60
2023-05-02T05:57:25.024Z,21.60
2023-05-02T06:00:14.619Z,21.70
2023-05-02T06:03:06.602Z,21.80
2023-05-02T06:05:56.576Z,21.80
2023-05-02T06:08:45.056Z,21.80
2023-05-02T06:11:33.711Z,21.90
2023-05-02T06:14:22.160Z,21.90
2023-05-02T06:17:10.738Z,22.00
2023-05-02T06:20:01.109Z,22.10
2023-05-02T06:22:49.702Z,22.20
2023-05-02T06:25:41.103Z,22.30
2023-05-02T06:28:29.823Z,22.30
2023-05-02T06:31:18.347Z,22.40
2023-05-02T06:34:06.927Z,22.60
2023-05-02T06:36:57.689Z,22.70
2023-05-02T06:39:46.047Z,22.80
2023-05-02T06:42:34.490Z,23.00
2023-05-02T06:45:22.936Z,23.20
2023-05-02T06:48:12.288Z,23.40
2023-05-02T06:51:01.448Z,23.60
2023-05-02T06:53:51.244Z,23.80
2023-05-02T06:56:39.712Z,24.20
2023-05-02T06:59:28.184Z,24.30
2023-05-02T07:02:16.606Z,24.30
2023-05-02T07:05:05.184Z,25.10
2023-05-02T07:07:53.577Z,25.60
2023-05-02T07:10:43.383Z,25.50
2023-05-02T07:13:31.850Z,25.20
2023-05-02T07:16:20.350Z,24.90
2023-05-02T07:19:08.808Z,24.80
2023-05-02T07:21:57.343Z,24.70
2023-05-02T07:24:46.321Z,24.70
2023-05-02T07:27:36.614Z,24.70
2023-05-02T07:30:25.223Z,24.70
2023-05-02T07:33:13.864Z,25.10
2023-05-02T07:36:03.426Z,25.10
2023-05-02T07:38:51.934Z,25.20
2023-05-02T07:41:40.468Z,25.20
2023-05-02T07:44:30.355Z,25.10
2023-05-02T07:47:18.742Z,25.00
2023-05-02T07:50:09.139Z,25.00
2023-05-02T07:52:58.157Z,24.90
2023-05-02T07:55:46.700Z,24.80
2023-05-02T07:58:36.164Z,24.80
2023-05-02T08:01:26.191Z,24.70
2023-05-02T08:04:14.902Z,24.60
2023-05-02T08:07:03.574Z,24.60
2023-05-02T08:09:52.066Z,24.50
2023-05-02T08:12:41.312Z,24.50
2023-05-02T08:15:30.522Z,24.40
2023-05-02T08:18:20.357Z,24.40
2023-05-02T08:21:08.804Z,24.40
2023-05-02T08:23:59.882Z,24.50
2023-05-02T08:26:48.269Z,24.50
2023-05-02T08:29:36.741Z,24.50
2023-05-02T08:32:25.664Z,24.50
2023-05-02T08:35:15.787Z,24.60
2023-05-02T08:38:04.250Z,24.50
2023-05-02T08:40:52.823Z,24.50
2023-05-02T08:43:41.912Z,24.40
2023-05-02T08:46:30.617Z,24.40
2023-05-02T08:49:20.678Z,24.30
2023-05-02T08:52:14.481Z,24.30
2023-05-02T08:55:04.428Z,24.30
2023-05-02T08:57:53.089Z,24.30
2023-05-02T09:00:43.233Z,24.30
2023-05-02T09:03:34.556Z,24.30
2023-05-02T09:06:24.002Z,24.20
2023-05-02T09:09:13.912Z,24.10
2023-05-02T09:12:02.839Z,24.10
2023-05-02T09:15:11.180Z,24.00
2023-05-02T09:17:59.772Z,24.00
2023-05-02T09:20:48.293Z,23.90
2023-05-02T09:23:39.083Z,24.00
2023-05-02T09:26:32.269Z,24.10
2023-05-02T09:29:22.090Z,24.10
2023-05-02T09:32:10.641Z,24.00
2023-05-02T09:35:09.080Z,23.90
2023-05-02T09:37:58.523Z,23.90
2023-05-02T09:40:56.259Z,23.80
2023-05-02T09:43:56.116Z,23.80
2023-05-02T09:46:47.078Z,23.80
2023-05-02T09:49:42.909Z,23.70
2023-05-02T09:52:31.390Z,23.70
2023-05-02T09:55:22.647Z,23.70
2023-05-02T09:58:22.669Z,23.70
2023-05-02T10:01:17.702Z,23.70
2023-05-02T10:04:06.480Z,23.70
2023-05-02T10:06:56.294Z,23.80
2023-05-02T10:09:46.361Z,23.80
2023-05-02T10:12:35.594Z,23.80
2023-05-02T10:15:26.335Z,23.80
2023-05-02T10:18:22.452Z,23.80
2023-05-02T10:21:12.893Z,23.80
2023-05-02T10:24:03.692Z,23.80
2023-05-02T10:26:53.009Z,23.70
2023-05-02T10:29:43.362Z,23.70
2023-05-02T10:32:34.958Z,23.80
2023-05-02T10:35:26.994Z,23.80
2023-05-02T10:38:19.323Z,23.90
2023-05-02T10:41:11.926Z,24.00
2023-05-02T10:44:02.288Z,24.00
2023-05-02T10:46:51.781Z,24.00
2023-05-02T10:49:52.349Z,24.00
2023-05-02T10:52:42.228Z,24.00
2023-05-02T10:55:31.396Z,24.00
2023-05-02T10:58:23.694Z,24.00
2023-05-02T11:01:36.714Z,24.00
2023-05-02T11:04:25.721Z,24.00
2023-05-02T11:07:20.599Z,24.00
2023-05-02T11:10:31.572Z,23.90
2023-05-02T11:13:52.290Z,23.90
2023-05-02T11:17:17.229Z,23.90
2023-05-02T11:20:27.104Z,23.90
2023-05-02T11:23:26.146Z,23.90
2023-05-02T11:26:23.843Z,24.00
2023-05-02T11:29:12.948Z,24.00
2023-05-02T11:32:01.507Z,24.10
2023-05-02T11:34:52.808Z,24.20
2023-05-02T11:37:41.254Z,24.30
2023-05-02T11:40:30.267Z,24.30
2023-05-02T11:43:21.580Z,24.40
2023-05-02T11:46:11.864Z,24.50
2023-05-02T11:49:00.482Z,24.50
2023-05-02T11:51:48.895Z,24.70
2023-05-02T11:54:37.328Z,24.80
2023-05-02T11:57:25.870Z,24.90
2023-05-02T12:00:16.855Z,25.00
2023-05-02T12:03:06.768Z,25.00
2023-05-02T12:05:55.520Z,25.00
2023-05-02T12:08:45.471Z,25.00
2023-05-02T12:11:34.519Z,25.00
2023-05-02T12:14:29.844Z,25.00
2023-05-02T12:17:19.768Z,25.00
2023-05-02T12:20:10.098Z,25.00
2023-05-02T12:22:59.032Z,24.90
2023-05-02T12:25:48.697Z,24.90
2023-05-02T12:28:50.949Z,24.90
2023-05-02T12:31:40.098Z,24.80
2023-05-02T12:34:37.538Z,24.90
2023-05-02T12:37:27.205Z,24.90
2023-05-02T12:40:17.803Z,24.90
2023-05-02T12:43:10.662Z,25.00
2023-05-02T12:46:11.789Z,25.30
2023-05-02T12:49:08.319Z,25.40
2023-05-02T12:51:59.383Z,25.70
2023-05-02T12:54:47.863Z,26.10
2023-05-02T12:57:36.325Z,26.70
2023-05-02T13:00:25.069Z,27.10
2023-05-02T13:03:13.612Z,27.30
2023-05-02T13:06:02.147Z,27.30
2023-05-02T13:08:51.981Z,27.80
2023-05-02T13:11:40.897Z,28.30
2023-05-02T13:14:29.579Z,28.80
2023-05-02T13:17:18.465Z,29.30
2023-05-02T13:20:08.633Z,29.20
2023-05-02T13:22:57.369Z,28.90
2023-05-02T13:25:47.165Z,28.60
2023-05-02T13:28:37.464Z,28.30
2023-05-02T13:31:26.065Z,28.70
2023-05-02T13:34:14.496Z,28.50
2023-05-02T13:37:03.019Z,28.30
2023-05-02T13:39:51.468Z,28.30
2023-05-02T13:42:41.468Z,28.10
2023-05-02T13:45:29.870Z,27.90
2023-05-02T13:48:18.533Z,27.80
2023-05-02T13:51:07.185Z,27.60
2023-05-02T13:53:55.725Z,27.60
2023-05-02T13:56:44.268Z,27.70
2023-05-02T13:59:34.142Z,27.80
2023-05-02T14:02:22.606Z,27.80
2023-05-02T14:05:11.630Z,27.60
2023-05-02T14:08:00.178Z,27.50
2023-05-02T14:10:48.665Z,27.50
2023-05-02T14:13:37.333Z,27.60
2023-05-02T14:16:27.247Z,27.50
2023-05-02T14:19:15.798Z,27.40
2023-05-02T14:22:04.375Z,27.30
2023-05-02T14:24:52.866Z,27.20
2023-05-02T14:27:42.143Z,27.10
2023-05-02T14:30:31.459Z,27.10
2023-05-02T14:33:21.412Z,26.90
2023-05-02T14:36:09.925Z,26.90
2023-05-02T14:38:58.436Z,26.80
2023-05-02T14:41:46.846Z,26.70
2023-05-02T14:44:35.412Z,26.60
2023-05-02T14:47:23.944Z,26.50
2023-05-02T14:50:14.132Z,26.40
2023-05-02T14:53:02.682Z,26.30
2023-05-02T14:55:51.234Z,26.10
2023-05-02T14:58:39.690Z,26.00
2023-05-02T15:01:29.193Z,25.90
2023-05-02T15:04:18.838Z,25.80
2023-05-02T15:07:09.172Z,25.70
2023-05-02T15:09:57.788Z,25.60
2023-05-02T15:12:50.720Z,25.50
2023-05-02T15:15:39.164Z,25.40
2023-05-02T15:18:27.618Z,25.30
2023-05-02T15:21:16.091Z,25.30
2023-05-02T15:24:06.747Z,25.20
2023-05-02T15:26:55.984Z,25.10
2023-05-02T15:29:44.435Z,25.00
2023-05-02T15:32:32.985Z,25.00
2023-05-02T15:35:21.510Z,24.90
2023-05-02T15:38:10.182Z,24.90
2023-05-02T15:41:03.843Z,24.90
2023-05-02T15:43:52.563Z,24.90
2023-05-02T15:46:42.526Z,24.90
2023-05-02T15:49:33.171Z,24.90
2023-05-02T15:52:21.793Z,24.90
2023-05-02T15:55:10.730Z,24.90
2023-05-02T15:58:00.635Z,24.80
2023-05-02T16:00:49.029Z,24.80
2023-05-02T16:03:37.842Z,24.80
2023-05-02T16:06:27.710Z,24.70
2023-05-02T16:09:16.373Z,24.60
2023-05-02T16:12:05.057Z,24.50
2023-05-02T16:14:54.877Z,24.40
2023-05-02T16:17:43.842Z,24.30
2023-05-02T16:20:36.666Z,24.30
2023-05-02T16:23:26.033Z,24.20
2023-05-02T16:26:14.628Z,24.10
2023-05-02T16:29:03.409Z,24.00
2023-05-02T16:31:53.642Z,23.90
2023-05-02T16:34:42.104Z,23.90
2023-05-02T16:37:30.517Z,23.80
2023-05-02T16:40:19.667Z,23.80
2023-05-02T16:43:08.882Z,23.70
2023-05-02T16:46:03.631Z,23.70
2023-05-02T16:48:53.627Z,23.60
2023-05-02T16:51:42.377Z,23.50
2023-05-02T16:54:31.095Z,23.40
2023-05-02T16:57:21.082Z,23.40
2023-05-02T17:00:12.633Z,23.30
2023-05-02T17:03:02.931Z,23.30
2023-05-02T17:05:54.416Z,23.20
2023-05-02T17:08:43.091Z,23.20
2023-05-02T17:11:31.813Z,23.10
2023-05-02T17:14:20.366Z,23.00
2023-05-02T17:17:08.981Z,23.00
2023-05-02T17:19:57.519Z,23.00
2023-05-02T17:22:47.712Z,22.90
2023-05-02T17:25:36.279Z,22.80
2023-05-02T17:28:24.762Z,22.80
2023-05-02T17:31:13.446Z,22.70
2023-05-02T17:34:02.381Z,22.70
2023-05-02T17:36:50.979Z,22.60
2023-05-02T17:39:40.938Z,22.60
2023-05-02T17:42:29.433Z,22.50
2023-05-02T17:45:18.201Z,22.40
2023-05-02T17:48:07.708Z,22.40
2023-05-02T17:50:56.396Z,22.30
2023-05-02T17:53:46.584Z,22.30
2023-05-02T17:56:37.473Z,22.20
2023-05-02T17:59:25.937Z,22.10
2023-05-02T18:02:15.759Z,22.10
2023-05-02T18:05:05.018Z,22.00
2023-05-02T18:07:53.759Z,22.00
2023-05-02T18:10:42.884Z,21.90
2023-05-02T18:13:34.466Z,21.90
2023-05-02T18:16:24.739Z,21.80
2023-05-02T18:19:13.242Z,21.80
2023-05-02T18:22:01.735Z,21.80
2023-05-02T18:24:50.425Z,21.70
2023-05-02T18:27:38.892Z,21.70
2023-05-02T18:30:28.995Z,21.60
2023-05-02T18:33:17.479Z,21.60
2023-05-02T18:36:06.389Z,21.60
2023-05-02T18:38:54.893Z,21.50
2023-05-02T18:41:43.465Z,21.40
2023-05-02T18:44:32.446Z,21.40
2023-05-02T18:47:24.621Z,21.30
2023-05-02T18:50:13.368Z,21.30
2023-05-02T18:53:01.852Z,21.30
2023-05-02T18:55:50.283Z,21.30
2023-05-02T18:58:38.663Z,21.30
2023-05-02T19:01:27.134Z,21.30
2023-05-02T19:04:17.026Z,21.30
2023-05-02T19:07:05.393Z,21.30
2023-05-02T19:09:53.795Z,21.30
2023-05-02T19:12:43.694Z,21.30
2023-05-02T19:15:34.239Z,21.30
2023-05-02T19:18:23.789Z,21.30
2023-05-02T19:21:14.748Z,21.30
2023-05-02T19:24:04.344Z,21.30
2023-05-02T19:26:53.134Z,21.30
2023-05-02T19:29:41.592Z,21.30
2023-05-02T19:32:30.426Z,21.30
2023-05-02T19:35:19.488Z,21.30
2023-05-02T19:38:09.378Z,21.30
2023-05-02T19:40:57.803Z,21.30
2023-05-02T19:43:46.339Z,21.30
2023-05-02T19:46:34.889Z,21.30
2023-05-02T19:49:23.347Z,21.30
2023-05-02T19:52:12.083Z,21.20
2023-05-02T19:55:02.284Z,21.20
2023-05-02T19:57:51.764Z,21.10
2023-05-02T20:00:41.509Z,21.10
2023-05-02T20:03:30.294Z,21.10
2023-05-02T20:06:20.130Z,21.10
2023-05-02T20:09:08.963Z,21.00
2023-05-02T20:11:58.887Z,21.00
2023-05-02T20:14:47.658Z,21.00
2023-05-02T20:17:36.158Z,21.00
2023-05-02T20:20:25.228Z,20.90
2023-05-02T20:23:13.928Z,20.90
2023-05-02T20:26:03.756Z,20.80
2023-05-02T20:28:53.983Z,20.80
2023-05-02T20:31:42.544Z,20.80
2023-05-02T20:34:31.393Z,20.80
2023-05-02T20:37:20.148Z,20.70
2023-05-02T20:40:10.079Z,20.70
2023-05-02T20:43:02.450Z,20.60
2023-05-02T20:45:52.612Z,20.60
2023-05-02T20:48:41.496Z,20.60
2023-05-02T20:51:31.474Z,20.50
2023-05-02T20:54:20.265Z,20.50
2023-05-02T20:57:08.980Z,20.50
2023-05-02T20:59:59.591Z,20.50
2023-05-02T21:02:49.731Z,20.40
2023-05-02T21:05:38.435Z,20.40
2023-05-02T21:08:27.511Z,20.30
2023-05-02T21:11:16.858Z,20.30
2023-05-02T21:14:05.633Z,20.30
2023-05-02T21:16:54.665Z,20.30
2023-05-02T21:19:44.556Z,20.30
2023-05-02T21:22:34.582Z,20.30
2023-05-02T21:25:23.546Z,20.20
2023-05-02T21:28:12.714Z,20.20
2023-05-02T21:31:02.885Z,20.20
2023-05-02T21:33:51.384Z,20.20
2023-05-02T21:36:42.251Z,20.10
2023-05-02T21:39:30.673Z,20.10
2023-05-02T21:42:19.157Z,20.00
2023-05-02T21:45:08.912Z,20.00
2023-05-02T21:47:57.726Z,20.00
2023-05-02T21:50:46.554Z,20.00
2023-05-02T21:53:36.685Z,19.90
2023-05-02T21:56:25.655Z,19.90
2023-05-02T21:59:14.177Z,19.90
2023-05-02T22:02:02.560Z,19.90
2023-05-02T22:04:51.061Z,19.80
2023-05-02T22:07:39.473Z,19.80
2023-05-02T22:10:30.089Z,19.80
2023-05-02T22:13:18.510Z,19.80
2023-05-02T22:16:08.067Z,19.80
2023-05-02T22:18:58.055Z,19.80
2023-05-02T22:21:46.490Z,19.80
2023-05-02T22:24:34.953Z,19.80
2023-05-02T22:27:24.747Z,19.70
2023-05-02T22:30:13.500Z,19.70
2023-05-02T22:33:03.077Z,19.70
2023-05-02T22:35:51.590Z,19.70
2023-05-02T22:38:40.458Z,19.60
2023-05-02T22:41:28.910Z,19.60
2023-05-02T22:44:18.710Z,19.60
2023-05-02T22:47:08.648Z,19.60
2023-05-02T22:49:59.678Z,19.60
2023-05-02T22:52:49.122Z,19.50
2023-05-02T22:55:39.229Z,19.50
2023-05-02T22:58:27.642Z,19.60
2023-05-02T23:01:17.497Z,19.50
2023-05-02T23:04:06.119Z,19.50
2023-05-02T23:06:54.622Z,19.50
2023-05-02T23:09:43.129Z,19.50
2023-05-02T23:12:31.519Z,19.50
2023-05-02T23:15:20.250Z,19.50
2023-05-02T23:18:10.666Z,19.40
2023-05-02T23:20:59.072Z,19.40
2023-05-02T23:23:47.640Z,19.40
2023-05-02T23:26:36.184Z,19.40
2023-05-02T23:29:24.829Z,19.40
2023-05-02T23:32:13.393Z,19.40
2023-05-02T23:35:03.797Z,19.40
2023-05-02T23:37:52.722Z,19.30
2023-05-02T23:40:41.167Z,19.30
2023-05-02T23:43:31.065Z,19.30
2023-05-02T23:46:19.560Z,19.30
2023-05-02T23:49:07.999Z,19.30
2023-05-02T23:51:57.800Z,19.30
2023-05-02T23:54:46.718Z,19.30
2023-05-02T23:57:35.290Z,19.30
